SALOWG 191720Z 16006KT 120V180 9999 FEW070 27/13 Q1013 NOSIG
FTLOWG 191715Z 1918/2018 34008KT 9999 FEW070 TX28/2013Z TN13/2004Z BECMG 1918/1920 VRB02KT CAVOK BECMG 2008/2010 16005KT 9999 FEW060 TEMPO 2014/2017 FEW050CB SCT100